sensor_id;sensor_type;location;lat;lon;timestamp;P1;durP1;ratioP1;P2;durP2;ratioP2
34876;SDS011;21086;44.780;17.194;2023-05-07T00:00:02;2.92;;;2.63;;
34876;SDS011;21086;44.780;17.194;2023-05-07T00:02:36;3.15;;;2.50;;
34876;SDS011;21086;44.780;17.194;2023-05-07T00:05:04;3.08;;;2.78;;
34876;SDS011;21086;44.780;17.194;2023-05-07T00:07:31;2.85;;;2.45;;
34876;SDS011;21086;44.780;17.194;2023-05-07T00:09:58;2.55;;;2.17;;
34876;SDS011;21086;44.780;17.194;2023-05-07T00:12:25;3.55;;;2.58;;
34876;SDS011;21086;44.780;17.194;2023-05-07T00:14:53;3.28;;;2.42;;
34876;SDS011;21086;44.780;17.194;2023-05-07T00:17:19;4.38;;;2.33;;
34876;SDS011;21086;44.780;17.194;2023-05-07T00:19:46;3.65;;;2.22;;
34876;SDS011;21086;44.780;17.194;2023-05-07T00:22:13;2.38;;;2.17;;
34876;SDS011;21086;44.780;17.194;2023-05-07T00:24:40;3.97;;;2.45;;
34876;SDS011;21086;44.780;17.194;2023-05-07T00:27:07;2.40;;;2.05;;
34876;SDS011;21086;44.780;17.194;2023-05-07T00:29:34;2.67;;;2.35;;
34876;SDS011;21086;44.780;17.194;2023-05-07T00:32:02;3.00;;;2.50;;
34876;SDS011;21086;44.780;17.194;2023-05-07T00:34:30;2.75;;;2.22;;
34876;SDS011;21086;44.780;17.194;2023-05-07T00:36:56;3.95;;;2.75;;
34876;SDS011;21086;44.780;17.194;2023-05-07T00:39:24;3.70;;;2.42;;
34876;SDS011;21086;44.780;17.194;2023-05-07T00:41:51;2.80;;;2.22;;
34876;SDS011;21086;44.780;17.194;2023-05-07T00:44:18;3.13;;;2.40;;
34876;SDS011;21086;44.780;17.194;2023-05-07T00:46:45;3.13;;;2.78;;
34876;SDS011;21086;44.780;17.194;2023-05-07T00:49:15;4.40;;;2.67;;
34876;SDS011;21086;44.780;17.194;2023-05-07T00:51:43;3.33;;;2.45;;
34876;SDS011;21086;44.780;17.194;2023-05-07T00:54:11;3.53;;;2.30;;
34876;SDS011;21086;44.780;17.194;2023-05-07T00:56:38;3.75;;;2.95;;
34876;SDS011;21086;44.780;17.194;2023-05-07T00:59:06;2.30;;;2.10;;
34876;SDS011;21086;44.780;17.194;2023-05-07T01:01:33;2.67;;;2.45;;
34876;SDS011;21086;44.780;17.194;2023-05-07T01:04:00;3.63;;;2.75;;
34876;SDS011;21086;44.780;17.194;2023-05-07T01:06:28;6.93;;;2.70;;
34876;SDS011;21086;44.780;17.194;2023-05-07T01:08:58;2.60;;;2.10;;
34876;SDS011;21086;44.780;17.194;2023-05-07T01:11:25;2.75;;;2.42;;
34876;SDS011;21086;44.780;17.194;2023-05-07T01:13:52;2.72;;;2.47;;
34876;SDS011;21086;44.780;17.194;2023-05-07T01:16:20;2.72;;;2.33;;
34876;SDS011;21086;44.780;17.194;2023-05-07T01:18:48;3.03;;;2.55;;
34876;SDS011;21086;44.780;17.194;2023-05-07T01:21:15;3.00;;;2.25;;
34876;SDS011;21086;44.780;17.194;2023-05-07T01:23:44;2.47;;;2.28;;
34876;SDS011;21086;44.780;17.194;2023-05-07T01:26:12;4.35;;;2.30;;
34876;SDS011;21086;44.780;17.194;2023-05-07T01:28:39;3.53;;;2.50;;
34876;SDS011;21086;44.780;17.194;2023-05-07T01:31:06;3.13;;;2.53;;
34876;SDS011;21086;44.780;17.194;2023-05-07T01:33:34;2.65;;;2.35;;
34876;SDS011;21086;44.780;17.194;2023-05-07T01:36:04;5.70;;;2.78;;
34876;SDS011;21086;44.780;17.194;2023-05-07T01:38:35;4.53;;;2.50;;
34876;SDS011;21086;44.780;17.194;2023-05-07T01:41:03;4.22;;;2.30;;
34876;SDS011;21086;44.780;17.194;2023-05-07T01:43:31;3.05;;;2.33;;
34876;SDS011;21086;44.780;17.194;2023-05-07T01:45:58;2.58;;;2.33;;
34876;SDS011;21086;44.780;17.194;2023-05-07T01:48:26;2.85;;;2.20;;
34876;SDS011;21086;44.780;17.194;2023-05-07T01:50:54;3.25;;;2.42;;
34876;SDS011;21086;44.780;17.194;2023-05-07T01:53:21;3.15;;;2.45;;
34876;SDS011;21086;44.780;17.194;2023-05-07T01:55:48;4.50;;;2.60;;
34876;SDS011;21086;44.780;17.194;2023-05-07T01:58:16;3.22;;;2.47;;
34876;SDS011;21086;44.780;17.194;2023-05-07T02:00:43;3.42;;;2.38;;
34876;SDS011;21086;44.780;17.194;2023-05-07T02:03:10;2.92;;;2.38;;
34876;SDS011;21086;44.780;17.194;2023-05-07T02:05:37;4.90;;;2.72;;
34876;SDS011;21086;44.780;17.194;2023-05-07T02:08:04;2.47;;;2.08;;
34876;SDS011;21086;44.780;17.194;2023-05-07T02:10:30;3.65;;;2.60;;
34876;SDS011;21086;44.780;17.194;2023-05-07T02:12:58;3.85;;;2.85;;
34876;SDS011;21086;44.780;17.194;2023-05-07T02:15:28;3.22;;;2.60;;
34876;SDS011;21086;44.780;17.194;2023-05-07T02:18:07;2.67;;;2.42;;
34876;SDS011;21086;44.780;17.194;2023-05-07T02:20:35;3.20;;;2.80;;
34876;SDS011;21086;44.780;17.194;2023-05-07T02:23:02;5.65;;;3.35;;
34876;SDS011;21086;44.780;17.194;2023-05-07T02:25:29;7.78;;;3.88;;
34876;SDS011;21086;44.780;17.194;2023-05-07T02:27:57;7.55;;;5.28;;
34876;SDS011;21086;44.780;17.194;2023-05-07T02:30:24;6.03;;;4.65;;
34876;SDS011;21086;44.780;17.194;2023-05-07T02:32:52;5.80;;;4.30;;
34876;SDS011;21086;44.780;17.194;2023-05-07T02:35:19;7.47;;;4.22;;
34876;SDS011;21086;44.780;17.194;2023-05-07T02:37:46;4.38;;;3.60;;
34876;SDS011;21086;44.780;17.194;2023-05-07T02:40:13;4.75;;;3.47;;
34876;SDS011;21086;44.780;17.194;2023-05-07T02:42:40;5.07;;;3.20;;
34876;SDS011;21086;44.780;17.194;2023-05-07T02:45:07;4.25;;;3.15;;
34876;SDS011;21086;44.780;17.194;2023-05-07T02:47:35;5.45;;;3.28;;
34876;SDS011;21086;44.780;17.194;2023-05-07T02:50:02;6.00;;;3.20;;
34876;SDS011;21086;44.780;17.194;2023-05-07T02:52:30;3.42;;;3.10;;
34876;SDS011;21086;44.780;17.194;2023-05-07T02:54:57;4.38;;;3.25;;
34876;SDS011;21086;44.780;17.194;2023-05-07T02:57:23;4.38;;;3.53;;
34876;SDS011;21086;44.780;17.194;2023-05-07T02:59:50;4.10;;;3.42;;
34876;SDS011;21086;44.780;17.194;2023-05-07T03:02:18;4.10;;;3.53;;
34876;SDS011;21086;44.780;17.194;2023-05-07T03:04:45;5.00;;;3.38;;
34876;SDS011;21086;44.780;17.194;2023-05-07T03:07:12;3.50;;;3.17;;
34876;SDS011;21086;44.780;17.194;2023-05-07T03:09:38;7.30;;;4.55;;
34876;SDS011;21086;44.780;17.194;2023-05-07T03:12:05;6.13;;;4.70;;
34876;SDS011;21086;44.780;17.194;2023-05-07T03:14:33;6.95;;;4.20;;
34876;SDS011;21086;44.780;17.194;2023-05-07T03:17:00;4.72;;;3.78;;
34876;SDS011;21086;44.780;17.194;2023-05-07T03:19:27;4.75;;;3.67;;
34876;SDS011;21086;44.780;17.194;2023-05-07T03:21:54;4.60;;;3.63;;
34876;SDS011;21086;44.780;17.194;2023-05-07T03:24:21;4.65;;;3.42;;
34876;SDS011;21086;44.780;17.194;2023-05-07T03:26:49;5.00;;;3.40;;
34876;SDS011;21086;44.780;17.194;2023-05-07T03:29:15;6.55;;;3.58;;
34876;SDS011;21086;44.780;17.194;2023-05-07T03:31:43;4.30;;;3.33;;
34876;SDS011;21086;44.780;17.194;2023-05-07T03:34:10;4.18;;;3.10;;
34876;SDS011;21086;44.780;17.194;2023-05-07T03:36:37;3.85;;;3.25;;
34876;SDS011;21086;44.780;17.194;2023-05-07T03:39:04;5.40;;;2.88;;
34876;SDS011;21086;44.780;17.194;2023-05-07T03:41:32;3.47;;;2.97;;
34876;SDS011;21086;44.780;17.194;2023-05-07T03:43:59;5.32;;;2.97;;
34876;SDS011;21086;44.780;17.194;2023-05-07T03:46:26;3.70;;;2.95;;
34876;SDS011;21086;44.780;17.194;2023-05-07T03:48:54;3.92;;;2.60;;
34876;SDS011;21086;44.780;17.194;2023-05-07T03:51:21;4.82;;;3.10;;
34876;SDS011;21086;44.780;17.194;2023-05-07T03:53:48;4.60;;;2.80;;
34876;SDS011;21086;44.780;17.194;2023-05-07T03:56:19;6.63;;;2.83;;
34876;SDS011;21086;44.780;17.194;2023-05-07T03:58:46;2.90;;;2.60;;
34876;SDS011;21086;44.780;17.194;2023-05-07T04:01:14;5.38;;;2.67;;
34876;SDS011;21086;44.780;17.194;2023-05-07T04:03:40;4.25;;;2.60;;
34876;SDS011;21086;44.780;17.194;2023-05-07T04:06:08;6.60;;;2.72;;
34876;SDS011;21086;44.780;17.194;2023-05-07T04:08:35;3.90;;;2.65;;
34876;SDS011;21086;44.780;17.194;2023-05-07T04:11:02;3.33;;;2.42;;
34876;SDS011;21086;44.780;17.194;2023-05-07T04:13:29;3.17;;;2.50;;
34876;SDS011;21086;44.780;17.194;2023-05-07T04:15:56;3.67;;;2.70;;
34876;SDS011;21086;44.780;17.194;2023-05-07T04:18:24;2.90;;;2.40;;
34876;SDS011;21086;44.780;17.194;2023-05-07T04:20:51;3.33;;;2.35;;
34876;SDS011;21086;44.780;17.194;2023-05-07T04:23:18;4.00;;;3.08;;
34876;SDS011;21086;44.780;17.194;2023-05-07T04:25:45;3.92;;;2.90;;
34876;SDS011;21086;44.780;17.194;2023-05-07T04:28:12;5.65;;;2.83;;
34876;SDS011;21086;44.780;17.194;2023-05-07T04:30:39;3.92;;;2.60;;
34876;SDS011;21086;44.780;17.194;2023-05-07T04:33:07;5.00;;;2.72;;
34876;SDS011;21086;44.780;17.194;2023-05-07T04:35:35;4.57;;;2.55;;
34876;SDS011;21086;44.780;17.194;2023-05-07T04:38:02;3.10;;;2.25;;
34876;SDS011;21086;44.780;17.194;2023-05-07T04:40:29;3.15;;;2.47;;
34876;SDS011;21086;44.780;17.194;2023-05-07T04:42:56;2.80;;;2.50;;
34876;SDS011;21086;44.780;17.194;2023-05-07T04:45:23;3.97;;;2.50;;
34876;SDS011;21086;44.780;17.194;2023-05-07T04:47:50;7.10;;;2.20;;
34876;SDS011;21086;44.780;17.194;2023-05-07T04:50:17;3.05;;;2.60;;
34876;SDS011;21086;44.780;17.194;2023-05-07T04:52:45;2.92;;;2.60;;
34876;SDS011;21086;44.780;17.194;2023-05-07T04:55:12;4.40;;;2.72;;
34876;SDS011;21086;44.780;17.194;2023-05-07T04:57:39;3.33;;;2.50;;
34876;SDS011;21086;44.780;17.194;2023-05-07T05:00:07;5.18;;;2.65;;
34876;SDS011;21086;44.780;17.194;2023-05-07T05:02:35;2.78;;;2.13;;
34876;SDS011;21086;44.780;17.194;2023-05-07T05:05:03;3.05;;;2.10;;
34876;SDS011;21086;44.780;17.194;2023-05-07T05:07:30;3.42;;;2.40;;
34876;SDS011;21086;44.780;17.194;2023-05-07T05:09:57;3.72;;;2.53;;
34876;SDS011;21086;44.780;17.194;2023-05-07T05:12:24;4.30;;;2.75;;
34876;SDS011;21086;44.780;17.194;2023-05-07T05:14:51;3.00;;;2.55;;
34876;SDS011;21086;44.780;17.194;2023-05-07T05:17:18;3.90;;;2.92;;
34876;SDS011;21086;44.780;17.194;2023-05-07T05:19:45;4.13;;;2.58;;
34876;SDS011;21086;44.780;17.194;2023-05-07T05:22:12;3.20;;;2.50;;
34876;SDS011;21086;44.780;17.194;2023-05-07T05:24:39;4.97;;;2.67;;
34876;SDS011;21086;44.780;17.194;2023-05-07T05:27:06;8.38;;;5.80;;
34876;SDS011;21086;44.780;17.194;2023-05-07T05:29:32;2.90;;;2.60;;
34876;SDS011;21086;44.780;17.194;2023-05-07T05:31:59;5.55;;;2.60;;
34876;SDS011;21086;44.780;17.194;2023-05-07T05:34:27;7.55;;;2.80;;
34876;SDS011;21086;44.780;17.194;2023-05-07T05:36:54;5.30;;;3.90;;
34876;SDS011;21086;44.780;17.194;2023-05-07T05:39:21;4.35;;;2.97;;
34876;SDS011;21086;44.780;17.194;2023-05-07T05:41:49;4.13;;;2.72;;
34876;SDS011;21086;44.780;17.194;2023-05-07T05:44:16;2.83;;;2.53;;
34876;SDS011;21086;44.780;17.194;2023-05-07T05:46:43;7.10;;;2.72;;
34876;SDS011;21086;44.780;17.194;2023-05-07T05:49:10;3.42;;;2.65;;
34876;SDS011;21086;44.780;17.194;2023-05-07T05:51:37;2.92;;;2.63;;
34876;SDS011;21086;44.780;17.194;2023-05-07T05:54:04;2.75;;;2.38;;
34876;SDS011;21086;44.780;17.194;2023-05-07T05:56:31;3.88;;;2.50;;
34876;SDS011;21086;44.780;17.194;2023-05-07T05:58:58;3.05;;;2.50;;
34876;SDS011;21086;44.780;17.194;2023-05-07T06:01:25;4.03;;;2.50;;
34876;SDS011;21086;44.780;17.194;2023-05-07T06:03:53;2.88;;;2.42;;
34876;SDS011;21086;44.780;17.194;2023-05-07T06:06:20;4.30;;;2.60;;
34876;SDS011;21086;44.780;17.194;2023-05-07T06:08:47;3.50;;;2.50;;
34876;SDS011;21086;44.780;17.194;2023-05-07T06:11:14;4.75;;;2.42;;
34876;SDS011;21086;44.780;17.194;2023-05-07T06:13:42;4.68;;;2.42;;
34876;SDS011;21086;44.780;17.194;2023-05-07T06:16:09;3.92;;;2.60;;
34876;SDS011;21086;44.780;17.194;2023-05-07T06:18:36;4.68;;;2.92;;
34876;SDS011;21086;44.780;17.194;2023-05-07T06:21:02;6.85;;;3.20;;
34876;SDS011;21086;44.780;17.194;2023-05-07T06:23:30;3.22;;;2.70;;
34876;SDS011;21086;44.780;17.194;2023-05-07T06:25:57;6.38;;;3.10;;
34876;SDS011;21086;44.780;17.194;2023-05-07T06:28:24;5.28;;;2.50;;
34876;SDS011;21086;44.780;17.194;2023-05-07T06:30:51;3.15;;;2.35;;
34876;SDS011;21086;44.780;17.194;2023-05-07T06:33:18;7.82;;;2.40;;
34876;SDS011;21086;44.780;17.194;2023-05-07T06:35:46;5.88;;;2.75;;
34876;SDS011;21086;44.780;17.194;2023-05-07T06:38:14;7.28;;;2.60;;
34876;SDS011;21086;44.780;17.194;2023-05-07T06:40:41;2.97;;;2.28;;
34876;SDS011;21086;44.780;17.194;2023-05-07T06:43:08;4.00;;;2.58;;
34876;SDS011;21086;44.780;17.194;2023-05-07T06:45:35;2.65;;;2.25;;
34876;SDS011;21086;44.780;17.194;2023-05-07T06:48:01;7.25;;;2.58;;
34876;SDS011;21086;44.780;17.194;2023-05-07T06:50:28;3.05;;;2.10;;
34876;SDS011;21086;44.780;17.194;2023-05-07T06:52:55;3.05;;;2.42;;
34876;SDS011;21086;44.780;17.194;2023-05-07T06:55:22;2.88;;;2.38;;
34876;SDS011;21086;44.780;17.194;2023-05-07T06:57:49;2.63;;;2.17;;
34876;SDS011;21086;44.780;17.194;2023-05-07T07:00:16;3.55;;;3.05;;
34876;SDS011;21086;44.780;17.194;2023-05-07T07:02:43;4.18;;;2.15;;
34876;SDS011;21086;44.780;17.194;2023-05-07T07:05:10;2.90;;;2.10;;
34876;SDS011;21086;44.780;17.194;2023-05-07T07:07:37;3.28;;;2.03;;
34876;SDS011;21086;44.780;17.194;2023-05-07T07:10:04;2.95;;;2.40;;
34876;SDS011;21086;44.780;17.194;2023-05-07T07:12:32;2.65;;;2.30;;
34876;SDS011;21086;44.780;17.194;2023-05-07T07:14:59;5.63;;;2.10;;
34876;SDS011;21086;44.780;17.194;2023-05-07T07:17:26;3.55;;;2.20;;
34876;SDS011;21086;44.780;17.194;2023-05-07T07:19:53;3.10;;;2.35;;
34876;SDS011;21086;44.780;17.194;2023-05-07T07:22:20;3.17;;;2.55;;
34876;SDS011;21086;44.780;17.194;2023-05-07T07:24:47;4.43;;;2.55;;
34876;SDS011;21086;44.780;17.194;2023-05-07T07:27:13;2.90;;;2.20;;
34876;SDS011;21086;44.780;17.194;2023-05-07T07:29:41;2.83;;;2.28;;
34876;SDS011;21086;44.780;17.194;2023-05-07T07:32:08;3.17;;;2.58;;
34876;SDS011;21086;44.780;17.194;2023-05-07T07:34:35;4.28;;;2.35;;
34876;SDS011;21086;44.780;17.194;2023-05-07T07:37:02;2.85;;;2.33;;
34876;SDS011;21086;44.780;17.194;2023-05-07T07:39:32;4.75;;;2.40;;
34876;SDS011;21086;44.780;17.194;2023-05-07T07:41:59;3.05;;;2.28;;
34876;SDS011;21086;44.780;17.194;2023-05-07T07:44:27;4.68;;;2.38;;
34876;SDS011;21086;44.780;17.194;2023-05-07T07:46:54;8.15;;;2.30;;
34876;SDS011;21086;44.780;17.194;2023-05-07T07:49:21;2.25;;;2.00;;
34876;SDS011;21086;44.780;17.194;2023-05-07T07:51:49;3.33;;;2.10;;
34876;SDS011;21086;44.780;17.194;2023-05-07T07:54:17;3.05;;;1.95;;
34876;SDS011;21086;44.780;17.194;2023-05-07T07:56:44;2.85;;;2.55;;
34876;SDS011;21086;44.780;17.194;2023-05-07T07:59:11;5.65;;;2.75;;
34876;SDS011;21086;44.780;17.194;2023-05-07T08:01:40;3.17;;;2.30;;
34876;SDS011;21086;44.780;17.194;2023-05-07T08:04:07;2.35;;;2.15;;
34876;SDS011;21086;44.780;17.194;2023-05-07T08:06:34;3.40;;;2.10;;
34876;SDS011;21086;44.780;17.194;2023-05-07T08:09:01;4.78;;;2.00;;
34876;SDS011;21086;44.780;17.194;2023-05-07T08:11:29;3.25;;;2.13;;
34876;SDS011;21086;44.780;17.194;2023-05-07T08:13:56;2.45;;;1.90;;
34876;SDS011;21086;44.780;17.194;2023-05-07T08:16:23;3.55;;;2.33;;
34876;SDS011;21086;44.780;17.194;2023-05-07T08:18:50;2.08;;;1.83;;
34876;SDS011;21086;44.780;17.194;2023-05-07T08:21:18;2.22;;;2.00;;
34876;SDS011;21086;44.780;17.194;2023-05-07T08:23:45;6.90;;;2.00;;
34876;SDS011;21086;44.780;17.194;2023-05-07T08:26:12;2.63;;;2.00;;
34876;SDS011;21086;44.780;17.194;2023-05-07T08:28:39;3.55;;;2.50;;
34876;SDS011;21086;44.780;17.194;2023-05-07T08:31:06;2.65;;;2.22;;
34876;SDS011;21086;44.780;17.194;2023-05-07T08:33:33;3.88;;;2.08;;
34876;SDS011;21086;44.780;17.194;2023-05-07T08:36:00;4.88;;;2.40;;
34876;SDS011;21086;44.780;17.194;2023-05-07T08:38:27;3.72;;;2.30;;
34876;SDS011;21086;44.780;17.194;2023-05-07T08:40:54;2.85;;;1.98;;
34876;SDS011;21086;44.780;17.194;2023-05-07T08:43:21;3.33;;;2.30;;
34876;SDS011;21086;44.780;17.194;2023-05-07T08:45:49;3.75;;;2.13;;
34876;SDS011;21086;44.780;17.194;2023-05-07T08:48:19;2.78;;;2.33;;
34876;SDS011;21086;44.780;17.194;2023-05-07T08:50:51;2.53;;;2.10;;
34876;SDS011;21086;44.780;17.194;2023-05-07T08:53:18;4.38;;;2.30;;
34876;SDS011;21086;44.780;17.194;2023-05-07T08:55:47;3.60;;;2.58;;
34876;SDS011;21086;44.780;17.194;2023-05-07T08:58:14;3.25;;;2.30;;
34876;SDS011;21086;44.780;17.194;2023-05-07T09:00:41;4.90;;;3.00;;
34876;SDS011;21086;44.780;17.194;2023-05-07T09:03:08;3.10;;;2.53;;
34876;SDS011;21086;44.780;17.194;2023-05-07T09:05:38;4.97;;;2.38;;
34876;SDS011;21086;44.780;17.194;2023-05-07T09:08:06;2.40;;;2.20;;
34876;SDS011;21086;44.780;17.194;2023-05-07T09:10:35;4.93;;;1.80;;
34876;SDS011;21086;44.780;17.194;2023-05-07T09:13:02;2.40;;;2.00;;
34876;SDS011;21086;44.780;17.194;2023-05-07T09:15:29;2.40;;;1.90;;
34876;SDS011;21086;44.780;17.194;2023-05-07T09:18:00;2.88;;;1.80;;
34876;SDS011;21086;44.780;17.194;2023-05-07T09:20:30;2.88;;;1.90;;
34876;SDS011;21086;44.780;17.194;2023-05-07T09:22:58;2.55;;;1.73;;
34876;SDS011;21086;44.780;17.194;2023-05-07T09:25:31;3.17;;;1.90;;
34876;SDS011;21086;44.780;17.194;2023-05-07T09:28:00;2.63;;;1.65;;
34876;SDS011;21086;44.780;17.194;2023-05-07T09:30:31;3.47;;;2.20;;
34876;SDS011;21086;44.780;17.194;2023-05-07T09:33:01;3.45;;;1.90;;
34876;SDS011;21086;44.780;17.194;2023-05-07T09:35:29;5.90;;;1.90;;
34876;SDS011;21086;44.780;17.194;2023-05-07T09:37:57;1.77;;;1.60;;
34876;SDS011;21086;44.780;17.194;2023-05-07T09:40:29;2.80;;;1.60;;
34876;SDS011;21086;44.780;17.194;2023-05-07T09:43:08;2.50;;;1.55;;
34876;SDS011;21086;44.780;17.194;2023-05-07T09:45:37;2.90;;;1.80;;
34876;SDS011;21086;44.780;17.194;2023-05-07T09:48:05;3.22;;;1.77;;
34876;SDS011;21086;44.780;17.194;2023-05-07T09:50:38;2.47;;;1.90;;
34876;SDS011;21086;44.780;17.194;2023-05-07T09:53:14;2.47;;;2.03;;
34876;SDS011;21086;44.780;17.194;2023-05-07T09:55:46;2.25;;;1.90;;
34876;SDS011;21086;44.780;17.194;2023-05-07T09:58:14;2.65;;;1.92;;
34876;SDS011;21086;44.780;17.194;2023-05-07T10:00:43;4.55;;;1.70;;
34876;SDS011;21086;44.780;17.194;2023-05-07T10:03:10;3.50;;;1.75;;
34876;SDS011;21086;44.780;17.194;2023-05-07T10:05:39;4.38;;;1.98;;
34876;SDS011;21086;44.780;17.194;2023-05-07T10:08:07;1.90;;;1.60;;
34876;SDS011;21086;44.780;17.194;2023-05-07T10:10:36;2.80;;;1.80;;
34876;SDS011;21086;44.780;17.194;2023-05-07T10:13:04;3.25;;;1.63;;
34876;SDS011;21086;44.780;17.194;2023-05-07T10:15:36;1.80;;;1.48;;
34876;SDS011;21086;44.780;17.194;2023-05-07T10:18:04;1.90;;;1.50;;
34876;SDS011;21086;44.780;17.194;2023-05-07T10:20:33;2.67;;;1.80;;
34876;SDS011;21086;44.780;17.194;2023-05-07T10:23:04;3.13;;;1.80;;
34876;SDS011;21086;44.780;17.194;2023-05-07T10:25:32;2.67;;;1.85;;
34876;SDS011;21086;44.780;17.194;2023-05-07T10:28:04;4.32;;;1.80;;
34876;SDS011;21086;44.780;17.194;2023-05-07T10:33:21;1.63;;;1.30;;
34876;SDS011;21086;44.780;17.194;2023-05-07T10:35:52;2.90;;;1.48;;
34876;SDS011;21086;44.780;17.194;2023-05-07T10:38:24;2.05;;;1.63;;
34876;SDS011;21086;44.780;17.194;2023-05-07T10:40:53;2.47;;;1.40;;
34876;SDS011;21086;44.780;17.194;2023-05-07T10:43:20;1.52;;;1.33;;
34876;SDS011;21086;44.780;17.194;2023-05-07T10:51:28;2.00;;;1.60;;
34876;SDS011;21086;44.780;17.194;2023-05-07T10:56:40;2.13;;;1.67;;
34876;SDS011;21086;44.780;17.194;2023-05-07T11:01:51;1.55;;;1.38;;
34876;SDS011;21086;44.780;17.194;2023-05-07T11:04:21;1.65;;;1.50;;
34876;SDS011;21086;44.780;17.194;2023-05-07T11:15:06;1.80;;;1.45;;
34876;SDS011;21086;44.780;17.194;2023-05-07T11:17:35;2.22;;;1.60;;
34876;SDS011;21086;44.780;17.194;2023-05-07T11:20:20;3.47;;;1.42;;
34876;SDS011;21086;44.780;17.194;2023-05-07T11:22:47;1.80;;;1.35;;
34876;SDS011;21086;44.780;17.194;2023-05-07T11:25:18;2.05;;;1.55;;
34876;SDS011;21086;44.780;17.194;2023-05-07T11:27:45;1.50;;;1.27;;
34876;SDS011;21086;44.780;17.194;2023-05-07T11:30:19;2.17;;;1.42;;
34876;SDS011;21086;44.780;17.194;2023-05-07T11:32:47;1.67;;;1.15;;
34876;SDS011;21086;44.780;17.194;2023-05-07T11:35:15;1.40;;;1.23;;
34876;SDS011;21086;44.780;17.194;2023-05-07T11:37:42;1.85;;;1.40;;
34876;SDS011;21086;44.780;17.194;2023-05-07T11:40:12;2.35;;;1.30;;
34876;SDS011;21086;44.780;17.194;2023-05-07T11:42:40;1.92;;;1.45;;
34876;SDS011;21086;44.780;17.194;2023-05-07T11:45:10;4.10;;;1.35;;
34876;SDS011;21086;44.780;17.194;2023-05-07T11:47:38;1.98;;;1.42;;
34876;SDS011;21086;44.780;17.194;2023-05-07T11:50:08;2.53;;;1.25;;
34876;SDS011;21086;44.780;17.194;2023-05-07T11:52:37;1.30;;;1.20;;
34876;SDS011;21086;44.780;17.194;2023-05-07T11:55:06;2.50;;;1.13;;
34876;SDS011;21086;44.780;17.194;2023-05-07T11:57:34;1.58;;;1.15;;
34876;SDS011;21086;44.780;17.194;2023-05-07T12:00:02;1.77;;;1.30;;
34876;SDS011;21086;44.780;17.194;2023-05-07T12:02:31;1.73;;;1.05;;
34876;SDS011;21086;44.780;17.194;2023-05-07T12:05:00;1.92;;;1.10;;
34876;SDS011;21086;44.780;17.194;2023-05-07T12:07:27;2.13;;;1.17;;
34876;SDS011;21086;44.780;17.194;2023-05-07T12:09:56;2.05;;;1.27;;
34876;SDS011;21086;44.780;17.194;2023-05-07T12:12:23;2.10;;;1.00;;
34876;SDS011;21086;44.780;17.194;2023-05-07T12:14:50;1.55;;;1.17;;
34876;SDS011;21086;44.780;17.194;2023-05-07T12:17:17;1.88;;;1.35;;
34876;SDS011;21086;44.780;17.194;2023-05-07T12:19:45;2.20;;;1.00;;
34876;SDS011;21086;44.780;17.194;2023-05-07T12:22:13;3.05;;;1.00;;
34876;SDS011;21086;44.780;17.194;2023-05-07T12:24:43;0.70;;;0.70;;
34876;SDS011;21086;44.780;17.194;2023-05-07T12:27:15;1.63;;;1.00;;
34876;SDS011;21086;44.780;17.194;2023-05-07T12:29:46;3.13;;;0.98;;
34876;SDS011;21086;44.780;17.194;2023-05-07T12:32:18;2.55;;;1.00;;
34876;SDS011;21086;44.780;17.194;2023-05-07T12:34:46;1.33;;;1.08;;
34876;SDS011;21086;44.780;17.194;2023-05-07T12:37:22;0.88;;;0.70;;
34876;SDS011;21086;44.780;17.194;2023-05-07T12:40:09;1.10;;;1.00;;
34876;SDS011;21086;44.780;17.194;2023-05-07T12:42:37;1.73;;;1.10;;
34876;SDS011;21086;44.780;17.194;2023-05-07T12:45:10;2.95;;;1.00;;
34876;SDS011;21086;44.780;17.194;2023-05-07T12:47:43;2.85;;;1.08;;
34876;SDS011;21086;44.780;17.194;2023-05-07T12:50:12;2.38;;;0.93;;
34876;SDS011;21086;44.780;17.194;2023-05-07T12:52:45;3.38;;;2.55;;
34876;SDS011;21086;44.780;17.194;2023-05-07T12:55:16;1.10;;;1.00;;
34876;SDS011;21086;44.780;17.194;2023-05-07T12:57:45;2.13;;;1.10;;
34876;SDS011;21086;44.780;17.194;2023-05-07T13:00:14;1.10;;;0.88;;
34876;SDS011;21086;44.780;17.194;2023-05-07T13:02:42;2.28;;;1.00;;
34876;SDS011;21086;44.780;17.194;2023-05-07T13:05:11;1.83;;;1.00;;
34876;SDS011;21086;44.780;17.194;2023-05-07T13:07:38;4.32;;;0.85;;
34876;SDS011;21086;44.780;17.194;2023-05-07T13:10:07;1.23;;;0.95;;
34876;SDS011;21086;44.780;17.194;2023-05-07T13:12:34;0.70;;;0.55;;
34876;SDS011;21086;44.780;17.194;2023-05-07T13:15:01;3.60;;;0.80;;
34876;SDS011;21086;44.780;17.194;2023-05-07T13:17:28;4.50;;;0.90;;
34876;SDS011;21086;44.780;17.194;2023-05-07T13:19:57;2.45;;;0.50;;
34876;SDS011;21086;44.780;17.194;2023-05-07T13:22:24;1.77;;;0.73;;
34876;SDS011;21086;44.780;17.194;2023-05-07T13:24:52;1.40;;;0.80;;
34876;SDS011;21086;44.780;17.194;2023-05-07T13:27:19;1.90;;;1.10;;
34876;SDS011;21086;44.780;17.194;2023-05-07T13:29:46;1.00;;;0.82;;
34876;SDS011;21086;44.780;17.194;2023-05-07T13:32:13;4.70;;;0.70;;
34876;SDS011;21086;44.780;17.194;2023-05-07T13:34:40;0.95;;;0.70;;
34876;SDS011;21086;44.780;17.194;2023-05-07T13:37:08;1.33;;;0.82;;
34876;SDS011;21086;44.780;17.194;2023-05-07T13:39:37;0.68;;;0.60;;
34876;SDS011;21086;44.780;17.194;2023-05-07T13:42:04;0.68;;;0.68;;
34876;SDS011;21086;44.780;17.194;2023-05-07T13:44:32;1.02;;;0.70;;
34876;SDS011;21086;44.780;17.194;2023-05-07T13:46:59;4.10;;;1.08;;
34876;SDS011;21086;44.780;17.194;2023-05-07T13:49:26;0.88;;;0.77;;
34876;SDS011;21086;44.780;17.194;2023-05-07T13:51:53;1.73;;;0.88;;
34876;SDS011;21086;44.780;17.194;2023-05-07T13:54:20;1.15;;;1.00;;
34876;SDS011;21086;44.780;17.194;2023-05-07T13:56:47;1.15;;;0.80;;
34876;SDS011;21086;44.780;17.194;2023-05-07T13:59:15;3.63;;;1.10;;
34876;SDS011;21086;44.780;17.194;2023-05-07T14:01:42;2.00;;;0.90;;
34876;SDS011;21086;44.780;17.194;2023-05-07T14:04:08;1.85;;;1.08;;
34876;SDS011;21086;44.780;17.194;2023-05-07T14:06:36;1.20;;;0.90;;
34876;SDS011;21086;44.780;17.194;2023-05-07T14:09:03;1.38;;;0.77;;
34876;SDS011;21086;44.780;17.194;2023-05-07T14:11:30;3.17;;;0.80;;
34876;SDS011;21086;44.780;17.194;2023-05-07T14:13:59;1.23;;;1.02;;
34876;SDS011;21086;44.780;17.194;2023-05-07T14:16:26;0.90;;;0.90;;
34876;SDS011;21086;44.780;17.194;2023-05-07T14:18:53;1.88;;;1.02;;
34876;SDS011;21086;44.780;17.194;2023-05-07T14:21:23;1.33;;;0.98;;
34876;SDS011;21086;44.780;17.194;2023-05-07T14:23:50;1.95;;;1.13;;
34876;SDS011;21086;44.780;17.194;2023-05-07T14:26:17;1.67;;;1.10;;
34876;SDS011;21086;44.780;17.194;2023-05-07T14:28:44;1.25;;;1.00;;
34876;SDS011;21086;44.780;17.194;2023-05-07T14:31:12;6.57;;;1.10;;
34876;SDS011;21086;44.780;17.194;2023-05-07T14:33:39;1.13;;;0.85;;
34876;SDS011;21086;44.780;17.194;2023-05-07T14:36:07;3.75;;;1.27;;
34876;SDS011;21086;44.780;17.194;2023-05-07T14:38:34;0.90;;;0.80;;
34876;SDS011;21086;44.780;17.194;2023-05-07T14:41:02;2.13;;;1.33;;
34876;SDS011;21086;44.780;17.194;2023-05-07T14:43:29;1.77;;;1.00;;
34876;SDS011;21086;44.780;17.194;2023-05-07T14:45:56;1.85;;;1.00;;
34876;SDS011;21086;44.780;17.194;2023-05-07T14:48:24;1.50;;;1.10;;
34876;SDS011;21086;44.780;17.194;2023-05-07T14:50:51;1.65;;;1.08;;
34876;SDS011;21086;44.780;17.194;2023-05-07T14:53:17;4.35;;;1.55;;
34876;SDS011;21086;44.780;17.194;2023-05-07T14:55:44;1.52;;;1.30;;
34876;SDS011;21086;44.780;17.194;2023-05-07T14:58:13;2.67;;;1.25;;